createdAt,value
2022-12-04T00:00:01.012Z,68.88
2022-12-04T00:02:27.889Z,68.04
2022-12-04T00:04:54.568Z,67.58
2022-12-04T00:07:21.203Z,68.68
2022-12-04T00:09:47.942Z,68.80
2022-12-04T00:12:14.543Z,67.22
2022-12-04T00:15:16.528Z,67.02
2022-12-04T00:17:27.715Z,66.79
2022-12-04T00:19:54.618Z,66.58
2022-12-04T00:22:21.558Z,67.58
2022-12-04T00:24:48.356Z,68.67
2022-12-04T00:27:15.003Z,67.30
2022-12-04T00:29:41.682Z,67.27
2022-12-04T00:32:08.495Z,66.93
2022-12-04T00:34:35.221Z,67.55
2022-12-04T00:37:01.838Z,67.79
2022-12-04T00:39:28.661Z,68.32
2022-12-04T00:41:55.261Z,67.88
2022-12-04T00:44:21.935Z,69.05
2022-12-04T00:46:48.548Z,69.12
2022-12-04T00:49:15.116Z,68.27
2022-12-04T00:51:41.741Z,67.98
2022-12-04T00:54:08.389Z,67.05
2022-12-04T00:56:34.980Z,66.56
2022-12-04T00:59:01.861Z,67.53
2022-12-04T01:01:30.158Z,67.61
2022-12-04T01:03:56.995Z,69.17
2022-12-04T01:06:26.951Z,69.76
2022-12-04T01:08:55.080Z,69.05
2022-12-04T01:11:23.334Z,66.78
2022-12-04T01:13:50.112Z,67.04
2022-12-04T01:16:25.467Z,66.96
2022-12-04T01:18:52.758Z,67.91
2022-12-04T01:21:19.673Z,68.05
2022-12-04T01:23:46.283Z,67.19
2022-12-04T01:26:13.719Z,66.29
2022-12-04T01:28:40.362Z,65.79
2022-12-04T01:31:10.519Z,66.47
2022-12-04T01:33:38.239Z,66.84
2022-12-04T01:36:07.359Z,66.74
2022-12-04T01:38:35.027Z,67.58
2022-12-04T01:41:02.085Z,67.82
2022-12-04T01:43:31.737Z,67.72
2022-12-04T01:46:00.147Z,68.51
2022-12-04T01:48:32.785Z,69.42
2022-12-04T01:51:17.860Z,67.46
2022-12-04T01:53:49.464Z,68.69
2022-12-04T01:56:16.929Z,69.59
2022-12-04T01:58:48.738Z,67.16
2022-12-04T02:01:15.429Z,66.44
2022-12-04T02:03:42.940Z,67.13
2022-12-04T02:06:09.623Z,67.85
2022-12-04T02:08:37.436Z,68.06
2022-12-04T02:11:21.860Z,67.02
2022-12-04T02:14:39.298Z,68.08
2022-12-04T02:17:28.330Z,67.39
2022-12-04T02:20:06.510Z,67.94
2022-12-04T02:22:47.823Z,67.51
2022-12-04T02:25:44.218Z,67.56
2022-12-04T02:28:10.738Z,67.61
2022-12-04T02:30:41.249Z,67.62
2022-12-04T02:33:20.352Z,68.09
2022-12-04T02:35:52.403Z,68.44
2022-12-04T02:38:30.495Z,68.72
2022-12-04T02:41:02.096Z,67.30
2022-12-04T02:43:37.766Z,66.67
2022-12-04T02:46:17.327Z,68.96
2022-12-04T02:48:49.174Z,67.91
2022-12-04T02:51:20.269Z,67.59
2022-12-04T02:53:53.436Z,67.17
2022-12-04T02:56:26.176Z,66.56
2022-12-04T02:58:57.250Z,65.78
2022-12-04T03:01:29.771Z,66.02
2022-12-04T03:04:03.239Z,66.25
2022-12-04T03:06:33.863Z,66.88
2022-12-04T03:09:07.896Z,66.45
2022-12-04T03:11:38.179Z,66.90
2022-12-04T03:14:25.264Z,66.79
2022-12-04T03:16:59.435Z,67.52
2022-12-04T03:19:29.720Z,69.00
2022-12-04T03:21:59.843Z,67.64
2022-12-04T03:24:31.059Z,68.75
2022-12-04T03:27:02.191Z,68.43
2022-12-04T03:29:39.158Z,68.28
2022-12-04T03:32:24.647Z,67.69
2022-12-04T03:34:59.180Z,68.76
2022-12-04T03:37:43.459Z,66.84
2022-12-04T03:40:28.081Z,65.94
2022-12-04T03:43:04.264Z,66.47
2022-12-04T03:45:44.297Z,66.38
2022-12-04T03:48:23.341Z,66.89
2022-12-04T03:51:05.070Z,65.76
2022-12-04T03:53:50.191Z,65.58
2022-12-04T03:56:21.288Z,65.63
2022-12-04T03:58:59.253Z,65.44
2022-12-04T04:01:35.339Z,65.45
2022-12-04T04:04:04.350Z,65.08
2022-12-04T04:06:39.288Z,65.02
2022-12-04T04:09:13.555Z,65.05
2022-12-04T04:11:56.085Z,65.25
2022-12-04T04:14:47.416Z,65.12
2022-12-04T04:17:38.446Z,67.35
2022-12-04T04:20:33.984Z,68.17
2022-12-04T04:23:21.363Z,67.65
2022-12-04T04:25:48.024Z,67.66
2022-12-04T04:28:40.883Z,67.98
2022-12-04T04:31:17.015Z,67.72
2022-12-04T04:33:53.267Z,67.27
2022-12-04T04:36:52.207Z,69.07
2022-12-04T04:39:30.190Z,68.20
2022-12-04T04:42:10.461Z,67.13
2022-12-04T04:44:55.420Z,68.82
2022-12-04T04:47:32.548Z,67.67
2022-12-04T04:50:02.992Z,68.23
2022-12-04T04:52:31.274Z,67.67
2022-12-04T04:54:59.923Z,67.40
2022-12-04T04:57:32.423Z,65.97
2022-12-04T04:59:59.041Z,65.92
2022-12-04T05:02:26.993Z,65.51
2022-12-04T05:04:55.275Z,64.82
2022-12-04T05:07:21.873Z,65.45
2022-12-04T05:09:48.535Z,66.20
2022-12-04T05:12:15.208Z,66.36
2022-12-04T05:14:41.916Z,67.68
2022-12-04T05:17:12.518Z,68.11
2022-12-04T05:19:55.204Z,66.30
2022-12-04T05:22:36.536Z,65.86
2022-12-04T05:25:03.894Z,65.46
2022-12-04T05:27:31.300Z,64.96
2022-12-04T05:29:59.290Z,67.11
2022-12-04T05:32:27.916Z,66.59
2022-12-04T05:34:55.908Z,66.57
2022-12-04T05:37:22.862Z,66.71
2022-12-04T05:39:49.502Z,67.28
2022-12-04T05:42:16.083Z,66.38
2022-12-04T05:44:42.760Z,66.19
2022-12-04T05:47:10.060Z,67.68
2022-12-04T05:49:36.753Z,66.55
2022-12-04T05:52:05.588Z,67.51
2022-12-04T05:54:32.266Z,67.73
2022-12-04T05:56:59.265Z,67.60
2022-12-04T05:59:25.857Z,66.35
2022-12-04T06:01:52.566Z,67.38
2022-12-04T06:04:19.260Z,66.26
2022-12-04T06:06:45.852Z,67.97
2022-12-04T06:09:12.479Z,65.76
2022-12-04T06:11:40.825Z,65.25
2022-12-04T06:14:10.719Z,66.36
2022-12-04T06:16:40.170Z,66.15
2022-12-04T06:19:10.365Z,67.17
2022-12-04T06:21:39.899Z,67.00
2022-12-04T06:24:07.957Z,66.40
2022-12-04T06:26:34.687Z,65.63
2022-12-04T06:29:01.613Z,65.24
2022-12-04T06:31:29.952Z,65.38
2022-12-04T06:33:58.602Z,65.70
2022-12-04T06:36:25.715Z,65.85
2022-12-04T06:38:55.862Z,65.62
2022-12-04T06:41:23.715Z,65.47
2022-12-04T06:43:51.854Z,65.11
2022-12-04T06:46:24.084Z,65.91
2022-12-04T06:48:52.309Z,65.35
2022-12-04T06:51:21.617Z,66.04
2022-12-04T06:53:48.773Z,67.55
2022-12-04T06:56:18.387Z,66.16
2022-12-04T06:58:50.647Z,65.27
2022-12-04T07:01:20.566Z,65.50
2022-12-04T07:03:51.571Z,65.08
2022-12-04T07:06:27.661Z,64.94
2022-12-04T07:09:15.903Z,65.11
2022-12-04T07:11:44.506Z,67.15
2022-12-04T07:14:12.493Z,68.09
2022-12-04T07:16:41.949Z,66.75
2022-12-04T07:19:14.229Z,66.86
2022-12-04T07:21:41.953Z,66.89
2022-12-04T07:24:10.775Z,68.03
2022-12-04T07:26:37.409Z,66.67
2022-12-04T07:29:04.114Z,66.35
2022-12-04T07:31:30.763Z,66.65
2022-12-04T07:33:57.911Z,67.04
2022-12-04T07:36:25.561Z,66.42
2022-12-04T07:38:52.372Z,66.37
2022-12-04T07:41:19.516Z,66.17
2022-12-04T07:43:46.140Z,66.76
2022-12-04T07:46:16.321Z,66.78
2022-12-04T07:48:43.042Z,67.79
2022-12-04T07:51:16.019Z,67.66
2022-12-04T07:53:43.197Z,66.06
2022-12-04T07:56:11.585Z,65.96
2022-12-04T07:58:38.336Z,66.62
2022-12-04T08:01:16.083Z,65.61
2022-12-04T08:03:48.199Z,66.85
2022-12-04T08:06:18.178Z,66.17
2022-12-04T08:08:45.293Z,64.77
2022-12-04T08:11:15.073Z,64.40
2022-12-04T08:13:42.049Z,64.22
2022-12-04T08:16:10.460Z,64.00
2022-12-04T08:18:37.699Z,64.60
2022-12-04T08:21:10.777Z,64.67
2022-12-04T08:23:38.919Z,64.60
2022-12-04T08:26:05.860Z,65.22
2022-12-04T08:28:32.874Z,65.18
2022-12-04T08:31:08.895Z,65.29
2022-12-04T08:33:35.698Z,65.67
2022-12-04T08:36:06.392Z,66.20
2022-12-04T08:38:33.123Z,65.91
2022-12-04T08:41:04.782Z,65.89
2022-12-04T08:43:31.420Z,64.92
2022-12-04T08:46:00.596Z,64.75
2022-12-04T08:48:28.206Z,65.38
2022-12-04T08:50:55.641Z,66.29
2022-12-04T08:53:22.792Z,66.96
2022-12-04T08:55:49.555Z,67.17
2022-12-04T08:58:16.376Z,67.77
2022-12-04T09:00:43.414Z,67.07
2022-12-04T09:03:15.529Z,67.13
2022-12-04T09:05:45.711Z,68.27
2022-12-04T09:08:14.089Z,66.88
2022-12-04T09:10:42.081Z,67.67
2022-12-04T09:13:08.932Z,67.36
2022-12-04T09:15:39.468Z,66.83
2022-12-04T09:18:07.484Z,67.41
2022-12-04T09:20:34.271Z,67.08
2022-12-04T09:23:04.454Z,67.70
2022-12-04T09:25:34.714Z,67.94
2022-12-04T09:28:01.333Z,68.60
2022-12-04T09:30:27.957Z,67.98
2022-12-04T09:32:54.634Z,67.12
2022-12-04T09:35:21.192Z,67.69
2022-12-04T09:37:47.767Z,67.41
2022-12-04T09:40:30.661Z,66.71
2022-12-04T09:43:18.525Z,67.65
2022-12-04T09:45:53.576Z,66.34
2022-12-04T09:48:22.290Z,66.18
2022-12-04T09:50:50.312Z,66.52
2022-12-04T09:53:27.877Z,66.43
2022-12-04T09:56:17.270Z,66.93
2022-12-04T09:59:18.617Z,65.92
2022-12-04T10:01:49.254Z,65.86
2022-12-04T10:04:18.376Z,66.31
2022-12-04T10:07:06.252Z,67.07
2022-12-04T10:09:59.235Z,66.97
2022-12-04T10:12:39.862Z,65.24
2022-12-04T10:15:38.557Z,64.75
2022-12-04T10:18:31.760Z,64.21
2022-12-04T10:21:30.313Z,64.21
2022-12-04T10:24:32.773Z,64.30
2022-12-04T10:27:06.017Z,64.04
2022-12-04T10:29:36.144Z,63.83
2022-12-04T10:32:36.303Z,63.54
2022-12-04T10:35:15.963Z,63.98
2022-12-04T10:37:44.480Z,64.02
2022-12-04T10:40:21.747Z,63.88
2022-12-04T10:43:26.056Z,63.89
2022-12-04T10:45:52.829Z,63.76
2022-12-04T10:48:27.168Z,63.90
2022-12-04T10:50:53.774Z,64.27
2022-12-04T10:53:29.567Z,64.45
2022-12-04T10:55:56.183Z,64.37
2022-12-04T10:58:22.753Z,64.20
2022-12-04T11:01:21.566Z,64.95
2022-12-04T11:03:56.896Z,65.13
2022-12-04T11:06:27.846Z,65.10
2022-12-04T11:08:55.852Z,65.84
2022-12-04T11:11:29.711Z,64.89
2022-12-04T11:14:13.952Z,65.56
2022-12-04T11:16:48.317Z,65.55
2022-12-04T11:19:24.688Z,65.42
2022-12-04T11:21:54.537Z,64.80
2022-12-04T11:24:24.907Z,66.40
2022-12-04T11:26:52.378Z,65.65
2022-12-04T11:29:22.382Z,64.98
2022-12-04T11:31:54.868Z,66.26
2022-12-04T11:34:26.432Z,67.55
2022-12-04T11:36:56.291Z,66.78
2022-12-04T11:39:41.498Z,66.58
2022-12-04T11:42:14.126Z,67.94
2022-12-04T11:44:52.799Z,67.38
2022-12-04T11:47:21.393Z,65.97
2022-12-04T11:50:26.833Z,66.06
2022-12-04T11:53:10.170Z,68.38
2022-12-04T11:56:17.102Z,67.62
2022-12-04T11:59:00.621Z,67.73
2022-12-04T12:02:02.884Z,67.96
2022-12-04T12:04:52.548Z,67.32
2022-12-04T12:07:46.257Z,66.41
2022-12-04T12:10:12.868Z,66.02
2022-12-04T12:13:04.785Z,66.54
2022-12-04T12:15:31.188Z,68.19
2022-12-04T12:18:25.725Z,68.57
2022-12-04T12:21:13.834Z,67.85
2022-12-04T12:24:04.403Z,66.49
2022-12-04T12:26:52.179Z,66.21
2022-12-04T12:29:32.513Z,65.48
2022-12-04T12:32:08.212Z,68.68
2022-12-04T12:34:34.829Z,67.42
2022-12-04T12:37:25.756Z,66.99
2022-12-04T12:40:16.778Z,69.35
2022-12-04T12:42:58.712Z,67.36
2022-12-04T12:45:45.734Z,66.96
2022-12-04T12:48:21.717Z,66.72
2022-12-04T12:51:09.045Z,65.53
2022-12-04T12:53:43.897Z,65.85
2022-12-04T12:56:13.194Z,68.58
2022-12-04T12:58:43.023Z,67.50
2022-12-04T13:01:22.591Z,66.54
2022-12-04T13:03:58.362Z,66.02
2022-12-04T13:06:35.038Z,65.47
2022-12-04T13:09:31.791Z,64.66
2022-12-04T13:12:09.382Z,64.55
2022-12-04T13:14:36.785Z,64.51
2022-12-04T13:17:15.411Z,64.65
2022-12-04T13:19:48.338Z,65.65
2022-12-04T13:22:27.490Z,64.89
2022-12-04T13:25:12.855Z,64.62
2022-12-04T13:27:50.174Z,64.60
2022-12-04T13:30:26.585Z,64.54
2022-12-04T13:33:11.901Z,64.51
2022-12-04T13:35:57.267Z,66.47
2022-12-04T13:38:33.611Z,67.15
2022-12-04T13:41:06.981Z,66.31
2022-12-04T13:43:42.746Z,65.50
2022-12-04T13:46:34.228Z,65.29
2022-12-04T13:49:08.155Z,65.19
2022-12-04T13:51:40.075Z,65.57
2022-12-04T13:54:12.868Z,65.38
2022-12-04T13:56:41.612Z,65.09
2022-12-04T13:59:21.076Z,64.58
2022-12-04T14:01:53.107Z,64.97
2022-12-04T14:04:29.325Z,64.61
2022-12-04T14:06:59.942Z,64.92
2022-12-04T14:09:49.385Z,64.93
2022-12-04T14:12:17.298Z,64.79
2022-12-04T14:14:58.109Z,65.15
2022-12-04T14:17:29.482Z,65.12
2022-12-04T14:20:02.900Z,65.11
2022-12-04T14:22:36.048Z,64.68
2022-12-04T14:25:25.064Z,65.08
2022-12-04T14:27:53.983Z,64.68
2022-12-04T14:30:22.915Z,64.70
2022-12-04T14:32:53.071Z,64.61
2022-12-04T14:35:23.477Z,64.11
2022-12-04T14:37:58.877Z,63.96
2022-12-04T14:40:29.695Z,64.85
2022-12-04T14:42:56.384Z,64.38
2022-12-04T14:45:35.183Z,65.02
2022-12-04T14:48:24.688Z,66.19
2022-12-04T14:51:15.774Z,65.97
2022-12-04T14:54:06.390Z,65.02
2022-12-04T14:56:49.599Z,64.42
2022-12-04T14:59:20.028Z,64.37
2022-12-04T15:01:49.578Z,64.47
2022-12-04T15:04:26.432Z,63.88
2022-12-04T15:06:59.714Z,64.50
2022-12-04T15:09:46.595Z,65.96
2022-12-04T15:12:35.605Z,65.30
2022-12-04T15:15:19.671Z,64.75
2022-12-04T15:18:17.020Z,65.12
2022-12-04T15:20:55.910Z,64.67
2022-12-04T15:23:34.847Z,66.15
2022-12-04T15:26:05.566Z,65.54
2022-12-04T15:28:50.812Z,66.08
2022-12-04T15:31:24.030Z,66.66
2022-12-04T15:33:55.420Z,67.32
2022-12-04T15:36:41.941Z,66.35
2022-12-04T15:39:14.056Z,65.55
2022-12-04T15:41:40.899Z,65.68
2022-12-04T15:44:34.502Z,66.71
2022-12-04T15:47:03.919Z,65.67
2022-12-04T15:49:32.489Z,65.14
2022-12-04T15:52:17.312Z,65.72
2022-12-04T15:55:01.708Z,66.40
2022-12-04T15:57:32.955Z,65.88
2022-12-04T16:00:05.093Z,65.75
2022-12-04T16:02:35.318Z,67.72
2022-12-04T16:05:28.779Z,66.26
2022-12-04T16:08:01.380Z,66.94
2022-12-04T16:10:31.793Z,66.11
2022-12-04T16:13:01.238Z,65.65
2022-12-04T16:15:37.391Z,65.70
2022-12-04T16:18:08.435Z,66.82
2022-12-04T16:20:36.888Z,67.36
2022-12-04T16:23:04.025Z,69.27
2022-12-04T16:25:31.618Z,69.92
2022-12-04T16:27:59.478Z,71.49
2022-12-04T16:30:28.241Z,72.94
2022-12-04T16:32:55.938Z,70.65
2022-12-04T16:35:27.246Z,70.31
2022-12-04T16:37:54.050Z,70.43
2022-12-04T16:40:20.647Z,70.66
2022-12-04T16:42:47.240Z,69.10
2022-12-04T16:45:34.340Z,67.62
2022-12-04T16:48:01.021Z,67.39
2022-12-04T16:50:27.872Z,67.72
2022-12-04T16:52:54.722Z,66.25
2022-12-04T16:55:28.118Z,65.98
2022-12-04T16:57:54.770Z,66.07
2022-12-04T17:00:21.645Z,65.73
2022-12-04T17:02:48.314Z,65.07
2022-12-04T17:05:24.167Z,64.88
2022-12-04T17:07:51.070Z,65.38
2022-12-04T17:10:23.454Z,65.50
2022-12-04T17:12:53.366Z,65.62
2022-12-04T17:15:20.298Z,65.63
2022-12-04T17:17:47.041Z,65.06
2022-12-04T17:20:18.377Z,64.96
2022-12-04T17:22:45.396Z,64.81
2022-12-04T17:25:13.042Z,66.52
2022-12-04T17:27:40.204Z,65.99
2022-12-04T17:30:07.461Z,65.44
2022-12-04T17:32:34.987Z,65.84
2022-12-04T17:35:02.892Z,65.59
2022-12-04T17:37:30.892Z,64.99
2022-12-04T17:39:57.482Z,65.49
2022-12-04T17:42:24.076Z,66.07
2022-12-04T17:44:50.727Z,65.03
2022-12-04T17:47:17.614Z,66.40
2022-12-04T17:49:44.307Z,66.86
2022-12-04T17:52:11.062Z,66.08
2022-12-04T17:54:37.684Z,67.79
2022-12-04T17:57:04.345Z,67.22
2022-12-04T17:59:30.994Z,66.02
2022-12-04T18:01:57.613Z,65.11
2022-12-04T18:04:24.977Z,64.75
2022-12-04T18:06:52.672Z,65.04
2022-12-04T18:09:19.573Z,65.17
2022-12-04T18:11:48.041Z,64.59
2022-12-04T18:14:17.369Z,64.65
2022-12-04T18:16:46.835Z,65.14
2022-12-04T18:19:14.274Z,65.92
2022-12-04T18:21:41.025Z,66.01
2022-12-04T18:24:08.587Z,66.15
2022-12-04T18:26:40.405Z,65.33
2022-12-04T18:29:08.017Z,65.34
2022-12-04T18:31:35.193Z,65.32
2022-12-04T18:34:01.937Z,64.79
2022-12-04T18:36:30.863Z,64.62
2022-12-04T18:39:00.499Z,64.89
2022-12-04T18:41:28.181Z,64.70
2022-12-04T18:43:57.016Z,64.69
2022-12-04T18:46:24.544Z,65.24
2022-12-04T18:48:54.630Z,65.28
2022-12-04T18:51:30.513Z,65.07
2022-12-04T18:54:01.351Z,65.51
2022-12-04T18:56:29.057Z,65.44
2022-12-04T18:59:00.821Z,65.11
2022-12-04T19:01:28.836Z,64.97
2022-12-04T19:03:57.972Z,64.79
2022-12-04T19:06:32.673Z,65.45
2022-12-04T19:09:01.527Z,65.78
2022-12-04T19:11:28.716Z,66.80
2022-12-04T19:13:55.807Z,66.91
2022-12-04T19:16:22.550Z,67.26
2022-12-04T19:18:49.178Z,67.40
2022-12-04T19:21:17.149Z,66.62
2022-12-04T19:23:59.630Z,67.16
2022-12-04T19:26:33.128Z,66.45
2022-12-04T19:29:02.386Z,66.77
2022-12-04T19:31:32.878Z,66.72
2022-12-04T19:33:59.553Z,67.24
2022-12-04T19:36:27.885Z,66.95
2022-12-04T19:38:56.218Z,66.39
2022-12-04T19:41:26.014Z,66.57
2022-12-04T19:43:56.347Z,66.02
2022-12-04T19:46:28.438Z,66.51
2022-12-04T19:48:58.341Z,66.87
2022-12-04T19:51:26.016Z,66.63
2022-12-04T19:53:54.649Z,66.73
2022-12-04T19:56:24.719Z,66.87
2022-12-04T19:58:53.074Z,65.91
2022-12-04T20:01:21.456Z,65.97
2022-12-04T20:03:48.157Z,65.71
2022-12-04T20:06:19.180Z,65.63
2022-12-04T20:08:46.630Z,66.10
2022-12-04T20:11:16.933Z,65.34
2022-12-04T20:13:48.542Z,65.22
2022-12-04T20:16:16.510Z,64.58
2022-12-04T20:18:44.043Z,64.53
2022-12-04T20:21:12.322Z,65.07
2022-12-04T20:23:41.026Z,66.08
2022-12-04T20:26:10.302Z,66.40
2022-12-04T20:28:36.978Z,66.17
2022-12-04T20:31:17.304Z,66.35
2022-12-04T20:33:46.102Z,66.44
2022-12-04T20:36:13.268Z,67.02
2022-12-04T20:38:40.075Z,68.50
2022-12-04T20:41:08.773Z,68.23
2022-12-04T20:43:35.613Z,66.92
2022-12-04T20:46:12.477Z,67.89
2022-12-04T20:48:39.109Z,67.89
2022-12-04T20:51:05.939Z,67.84
2022-12-04T20:53:32.501Z,66.75
2022-12-04T20:55:59.059Z,66.55
2022-12-04T20:58:25.599Z,66.62
2022-12-04T21:00:53.545Z,67.86
2022-12-04T21:03:20.174Z,69.31
2022-12-04T21:05:49.982Z,68.84
2022-12-04T21:08:36.578Z,67.84
2022-12-04T21:11:03.257Z,67.45
2022-12-04T21:13:48.327Z,68.77
2022-12-04T21:16:14.991Z,68.11
2022-12-04T21:18:41.613Z,68.33
2022-12-04T21:21:08.234Z,68.02
2022-12-04T21:23:35.992Z,67.41
2022-12-04T21:26:03.201Z,67.82
2022-12-04T21:28:31.221Z,66.80
2022-12-04T21:31:02.685Z,67.79
2022-12-04T21:33:31.539Z,68.36
2022-12-04T21:36:06.816Z,67.66
2022-12-04T21:38:38.384Z,67.13
2022-12-04T21:41:06.127Z,66.71
2022-12-04T21:43:33.404Z,66.70
2022-12-04T21:46:05.968Z,67.29
2022-12-04T21:48:36.017Z,66.83
2022-12-04T21:51:13.258Z,66.80
2022-12-04T21:53:54.710Z,66.09
2022-12-04T21:56:22.727Z,65.95
2022-12-04T21:58:49.522Z,66.20
2022-12-04T22:01:17.579Z,66.43
2022-12-04T22:03:44.419Z,67.16
2022-12-04T22:06:11.162Z,67.31
2022-12-04T22:08:39.481Z,66.95
2022-12-04T22:11:08.182Z,66.45
2022-12-04T22:13:36.152Z,66.60
2022-12-04T22:16:05.465Z,66.89
2022-12-04T22:18:33.594Z,66.18
2022-12-04T22:21:03.675Z,65.95
2022-12-04T22:23:30.272Z,65.93
2022-12-04T22:26:03.086Z,65.42
2022-12-04T22:28:29.631Z,66.47
2022-12-04T22:30:56.250Z,67.69
2022-12-04T22:33:22.858Z,68.08
2022-12-04T22:35:49.431Z,67.29
2022-12-04T22:38:15.999Z,66.23
2022-12-04T22:40:42.693Z,65.79
2022-12-04T22:43:11.602Z,65.80
2022-12-04T22:45:38.171Z,65.46
2022-12-04T22:48:05.080Z,65.42
2022-12-04T22:50:31.652Z,65.44
2022-12-04T22:52:58.265Z,65.29
2022-12-04T22:55:24.840Z,65.38
2022-12-04T22:57:51.431Z,65.02
2022-12-04T23:00:18.461Z,65.14
2022-12-04T23:02:45.222Z,65.37
2022-12-04T23:05:11.941Z,65.03
2022-12-04T23:07:39.265Z,65.40
2022-12-04T23:10:06.603Z,65.81
2022-12-04T23:12:33.193Z,67.07
2022-12-04T23:14:59.792Z,67.26
2022-12-04T23:17:26.442Z,67.36
2022-12-04T23:19:53.017Z,67.93
2022-12-04T23:22:19.617Z,67.71
2022-12-04T23:24:46.211Z,68.23
2022-12-04T23:27:12.778Z,67.93
2022-12-04T23:29:54.946Z,67.83
2022-12-04T23:32:21.584Z,67.93
2022-12-04T23:34:48.357Z,67.64
2022-12-04T23:37:15.117Z,67.86
2022-12-04T23:39:41.700Z,67.61
2022-12-04T23:42:08.276Z,67.46
2022-12-04T23:44:34.867Z,67.68
2022-12-04T23:47:01.673Z,67.23
2022-12-04T23:49:28.459Z,67.46
2022-12-04T23:51:55.085Z,66.85
2022-12-04T23:54:21.659Z,66.93
2022-12-04T23:56:48.238Z,66.91
2022-12-04T23:59:14.852Z,66.68
